Time;durP1;ratioP1;P1;durP2;ratioP2;P2;SDS_P1;SDS_P2;PMS_P1;PMS_P2;Temp;Humidity;BMP_temperature;BMP_pressure;BME280_temperature;BME280_humidity;BME280_pressure;Samples;Min_cycle;Max_cycle;Signal;HPM_P1;HPM_P2
2023/02/19 00:00:55;;;;;;;183.57;173.10;;;3.90;95.50;;;;;;4919396;29;20661;-89
2023/02/19 00:03:20;;;;;;;180.23;169.83;;;4.00;95.60;;;;;;4919305;29;20530;-89
2023/02/19 00:05:46;;;;;;;187.07;176.77;;;3.90;95.50;;;;;;4919368;29;20820;-90
2023/02/19 00:08:11;;;;;;;186.13;175.33;;;3.90;95.50;;;;;;4919408;29;20175;-91
2023/02/19 00:10:37;;;;;;;186.33;175.80;;;3.90;95.60;;;;;;4919454;29;20180;-90
2023/02/19 00:13:02;;;;;;;188.63;178.07;;;3.90;95.50;;;;;;4919342;29;20184;-90
2023/02/19 00:15:30;;;;;;;195.50;184.87;;;3.90;95.50;;;;;;4919448;29;20196;-89
2023/02/19 00:17:57;;;;;;;198.60;187.73;;;3.90;95.50;;;;;;4903604;29;20226;-90
2023/02/19 00:20:22;;;;;;;197.60;186.50;;;3.80;95.50;;;;;;4919033;29;20180;-89
2023/02/19 00:22:48;;;;;;;186.53;176.07;;;3.80;95.50;;;;;;4919044;29;20242;-90
2023/02/19 00:25:14;;;;;;;185.23;174.97;;;3.80;95.60;;;;;;4919062;29;20270;-90
2023/02/19 00:27:39;;;;;;;187.10;176.70;;;3.80;95.60;;;;;;4919061;29;20183;-90
2023/02/19 00:30:05;;;;;;;189.50;178.80;;;3.80;95.60;;;;;;4919001;29;20632;-90
2023/02/19 00:32:30;;;;;;;178.20;168.00;;;3.80;95.60;;;;;;4919252;29;20186;-90
2023/02/19 00:34:56;;;;;;;181.60;171.20;;;3.80;95.60;;;;;;4919032;29;20326;-89
2023/02/19 00:37:21;;;;;;;177.83;167.67;;;3.80;95.60;;;;;;4918892;29;20199;-89
2023/02/19 00:39:47;;;;;;;179.73;169.57;;;3.80;95.60;;;;;;4919002;29;20180;-88
2023/02/19 00:42:13;;;;;;;172.37;162.67;;;3.80;95.60;;;;;;4935997;29;20593;-89
2023/02/19 00:44:38;;;;;;;174.67;164.37;;;3.80;95.70;;;;;;4935803;29;20561;-89
2023/02/19 00:47:04;;;;;;;170.10;160.10;;;3.80;95.70;;;;;;4918989;29;20179;-89
2023/02/19 00:49:30;;;;;;;174.73;164.33;;;3.80;95.70;;;;;;4919210;29;20235;-89
2023/02/19 00:51:56;;;;;;;171.70;161.10;;;3.90;95.70;;;;;;4919247;29;20184;-89
2023/02/19 00:54:21;;;;;;;171.83;161.33;;;3.90;95.70;;;;;;4919149;29;20188;-90
2023/02/19 00:56:47;;;;;;;174.40;163.87;;;3.90;95.70;;;;;;4920149;29;20215;-89
2023/02/19 00:59:14;;;;;;;172.33;162.07;;;3.90;95.80;;;;;;4919334;29;20722;-89
2023/02/19 01:01:40;;;;;;;173.03;162.83;;;3.80;95.80;;;;;;4919353;29;20285;-92
2023/02/19 01:04:06;;;;;;;171.53;161.43;;;3.90;95.80;;;;;;4919649;29;20187;-90
2023/02/19 01:06:33;;;;;;;167.77;157.70;;;3.90;95.80;;;;;;4919572;29;20235;-91
2023/02/19 01:08:59;;;;;;;175.43;165.03;;;3.80;95.90;;;;;;4922649;29;20185;-91
2023/02/19 01:11:26;;;;;;;171.50;160.90;;;3.80;95.90;;;;;;4923075;29;20184;-93
2023/02/19 01:13:51;;;;;;;172.30;161.33;;;3.90;95.90;;;;;;4923385;29;20191;-91
2023/02/19 01:16:23;;;;;;;173.53;163.07;;;3.90;95.90;;;;;;4922264;29;20210;-91
2023/02/19 01:18:49;;;;;;;169.70;159.10;;;3.90;95.90;;;;;;4922059;29;20194;-91
2023/02/19 01:21:21;;;;;;;177.47;166.33;;;3.90;95.90;;;;;;4922100;29;20187;-90
2023/02/19 01:23:51;;;;;;;171.63;161.33;;;3.90;96.00;;;;;;4922050;29;20188;-90
2023/02/19 01:26:21;;;;;;;171.67;161.23;;;3.90;96.00;;;;;;4906231;29;20679;-90
2023/02/19 01:28:47;;;;;;;169.90;159.00;;;3.90;96.00;;;;;;4921868;29;20605;-90
2023/02/19 01:31:16;;;;;;;169.43;159.17;;;3.90;96.00;;;;;;4922225;29;20177;-90
2023/02/19 01:33:51;;;;;;;173.33;162.50;;;4.00;96.00;;;;;;4921948;29;20214;-90
2023/02/19 01:36:17;;;;;;;170.27;160.17;;;4.10;96.00;;;;;;4921997;29;20310;-90
2023/02/19 01:38:43;;;;;;;173.50;163.23;;;4.10;96.00;;;;;;4921768;29;20625;-90
2023/02/19 01:41:14;;;;;;;183.50;172.93;;;4.20;96.10;;;;;;4921579;29;20187;-90
2023/02/19 01:44:14;;;;;;;173.10;162.43;;;4.10;96.00;;;;;;4922894;29;20640;-90
2023/02/19 01:46:41;;;;;;;194.17;182.93;;;4.20;96.00;;;;;;4922175;29;20691;-90
2023/02/19 01:49:16;;;;;;;202.57;190.50;;;4.20;96.00;;;;;;4923558;29;20336;-89
2023/02/19 01:51:50;;;;;;;204.37;192.73;;;4.20;96.00;;;;;;4923439;29;20183;-90
2023/02/19 01:54:19;;;;;;;202.73;191.30;;;4.20;96.00;;;;;;4923099;29;20351;-90
2023/02/19 01:56:45;;;;;;;207.60;195.83;;;4.20;96.00;;;;;;4922444;29;20687;-89
2023/02/19 01:59:11;;;;;;;201.43;189.80;;;4.20;96.00;;;;;;4922192;29;20184;-90
2023/02/19 02:01:38;;;;;;;202.03;190.53;;;4.20;96.00;;;;;;4924161;29;20191;-91
2023/02/19 02:04:07;;;;;;;208.07;196.30;;;4.20;96.00;;;;;;4924065;29;20210;-90
2023/02/19 02:06:51;;;;;;;208.60;196.90;;;4.20;96.00;;;;;;4906624;29;20239;-91
2023/02/19 02:12:03;;;;;;;212.33;200.30;;;4.20;95.90;;;;;;4939373;29;20201;-90
2023/02/19 02:14:32;;;;;;;208.90;196.60;;;4.20;95.90;;;;;;4921007;29;20180;-91
2023/02/19 02:17:28;;;;;;;215.50;203.50;;;4.30;95.90;;;;;;4921448;29;20247;-91
2023/02/19 02:20:22;;;;;;;212.87;200.90;;;4.20;95.90;;;;;;4921804;29;20593;-90
2023/02/19 02:23:07;;;;;;;214.90;202.80;;;4.20;95.80;;;;;;4923427;29;20187;-90
2023/02/19 02:25:56;;;;;;;221.50;208.97;;;4.20;95.80;;;;;;4921093;29;20306;-90
2023/02/19 02:29:06;;;;;;;210.80;199.20;;;4.10;95.80;;;;;;4920580;29;20272;-90
2023/02/19 02:31:41;;;;;;;210.23;198.47;;;4.20;95.80;;;;;;4906413;29;20194;-91
2023/02/19 02:34:15;;;;;;;205.43;193.80;;;4.20;95.70;;;;;;4921040;29;20195;-91
2023/02/19 02:36:48;;;;;;;193.60;182.40;;;4.10;95.70;;;;;;4921882;29;20207;-90
2023/02/19 02:39:18;;;;;;;175.17;164.93;;;4.10;95.70;;;;;;4920720;29;20270;-90
2023/02/19 02:42:25;;;;;;;161.90;152.30;;;4.00;95.60;;;;;;4920496;29;20196;-90
2023/02/19 02:44:35;;;;;;;157.87;147.63;;;3.90;95.50;;;;;;4937309;29;20191;-91
2023/02/19 02:47:04;;;;;;;154.97;145.83;;;3.80;95.50;;;;;;4920389;29;20188;-91
2023/02/19 02:49:30;;;;;;;152.07;143.30;;;3.80;95.50;;;;;;4920227;29;20184;-90
2023/02/19 02:51:57;;;;;;;148.67;139.33;;;3.80;95.40;;;;;;4920501;29;20188;-91
2023/02/19 02:57:14;;;;;;;145.30;136.80;;;3.80;95.30;;;;;;4937790;29;20258;-90
2023/02/19 02:59:41;;;;;;;151.93;142.70;;;3.80;95.20;;;;;;4921050;29;20186;-90
2023/02/19 03:02:22;;;;;;;154.47;145.23;;;3.80;95.20;;;;;;4920062;29;20184;-89
2023/02/19 03:08:06;;;;;;;157.60;148.10;;;3.70;95.10;;;;;;4937718;29;20209;-90
2023/02/19 03:10:47;;;;;;;163.67;153.80;;;3.80;95.10;;;;;;4920984;29;20179;-89
2023/02/19 03:19:18;;;;;;;167.70;158.00;;;3.90;95.10;;;;;;4937012;29;20569;-90
2023/02/19 03:22:08;;;;;;;167.83;157.83;;;3.90;95.10;;;;;;4919681;29;20311;-89
2023/02/19 03:27:26;;;;;;;166.77;157.10;;;3.90;95.10;;;;;;4937161;29;20631;-89
2023/02/19 03:29:56;;;;;;;173.20;162.57;;;3.80;95.10;;;;;;4919899;29;20189;-89
2023/02/19 03:32:37;;;;;;;175.63;164.97;;;3.80;95.10;;;;;;4919117;29;20183;-89
2023/02/19 03:35:08;;;;;;;182.43;171.50;;;3.70;95.00;;;;;;4919678;29;20219;-88
2023/02/19 03:37:40;;;;;;;188.03;177.43;;;3.70;95.00;;;;;;4919489;29;20187;-89
2023/02/19 03:40:06;;;;;;;186.73;176.30;;;3.80;95.10;;;;;;4919357;29;20198;-89
2023/02/19 03:42:35;;;;;;;189.43;178.53;;;3.80;95.10;;;;;;4919400;29;20180;-88
2023/02/19 03:45:10;;;;;;;182.23;171.67;;;3.90;95.10;;;;;;4919820;29;20687;-89
2023/02/19 03:47:49;;;;;;;185.03;174.50;;;3.80;95.10;;;;;;4919702;29;20550;-89
2023/02/19 03:50:39;;;;;;;180.03;169.50;;;3.80;95.10;;;;;;4919301;29;20186;-88
2023/02/19 03:53:17;;;;;;;183.37;173.17;;;3.80;95.10;;;;;;4919159;29;20172;-89
2023/02/19 03:56:05;;;;;;;177.47;167.33;;;3.80;95.10;;;;;;4919661;29;20210;-89
2023/02/19 03:58:43;;;;;;;174.17;164.17;;;3.80;95.10;;;;;;4919975;29;20183;-88
2023/02/19 04:01:18;;;;;;;168.07;157.93;;;3.80;95.00;;;;;;4936438;29;20253;-88
2023/02/19 04:04:02;;;;;;;175.43;165.37;;;3.70;95.00;;;;;;4919246;29;20222;-89
2023/02/19 04:06:31;;;;;;;175.07;164.93;;;3.70;95.00;;;;;;4918950;29;20278;-89
2023/02/19 04:09:03;;;;;;;172.73;162.80;;;3.70;95.00;;;;;;4919029;29;20191;-89
2023/02/19 04:11:30;;;;;;;165.33;155.53;;;3.70;95.00;;;;;;4919050;29;20530;-88
2023/02/19 04:14:05;;;;;;;162.70;153.20;;;3.60;95.00;;;;;;4919018;29;20271;-89
2023/02/19 04:16:33;;;;;;;153.23;144.37;;;3.50;95.00;;;;;;4918856;29;20203;-89
2023/02/19 04:19:05;;;;;;;153.87;145.17;;;3.40;94.90;;;;;;4919227;29;20191;-89
2023/02/19 04:21:32;;;;;;;155.70;146.93;;;3.40;94.90;;;;;;4919149;29;20273;-89
2023/02/19 04:24:05;;;;;;;151.43;142.53;;;3.40;95.00;;;;;;4918982;29;20299;-89
2023/02/19 04:26:32;;;;;;;154.37;145.53;;;3.40;94.90;;;;;;4918918;29;20298;-89
2023/02/19 04:28:58;;;;;;;163.40;154.10;;;3.30;94.80;;;;;;4919174;29;20183;-89
2023/02/19 04:31:25;;;;;;;159.43;149.57;;;3.20;94.80;;;;;;4918761;29;20176;-89
2023/02/19 04:33:51;;;;;;;164.83;155.03;;;3.10;94.90;;;;;;4918760;29;20178;-88
2023/02/19 04:36:16;;;;;;;168.23;158.27;;;3.10;94.90;;;;;;4918729;29;20215;-88
2023/02/19 04:38:42;;;;;;;157.70;148.33;;;3.20;94.90;;;;;;4918771;29;20660;-88
2023/02/19 04:41:08;;;;;;;161.60;152.40;;;3.10;94.80;;;;;;4918728;29;20179;-88
2023/02/19 04:43:34;;;;;;;170.37;160.27;;;3.10;94.80;;;;;;4922198;29;20555;-88
2023/02/19 04:46:00;;;;;;;168.90;158.67;;;3.00;94.90;;;;;;4922370;29;20203;-89
2023/02/19 04:48:26;;;;;;;169.23;158.53;;;3.00;94.90;;;;;;4922341;29;20223;-89
2023/02/19 04:50:52;;;;;;;156.73;147.33;;;3.00;94.90;;;;;;4922416;29;20183;-89
2023/02/19 04:53:17;;;;;;;158.00;148.43;;;3.00;94.90;;;;;;4923281;29;20180;-89
2023/02/19 04:55:43;;;;;;;153.80;144.67;;;3.10;94.90;;;;;;4922203;29;20303;-89
2023/02/19 04:58:08;;;;;;;143.43;135.00;;;3.10;95.00;;;;;;4922256;29;20186;-88
2023/02/19 05:00:34;;;;;;;144.90;136.63;;;3.10;94.90;;;;;;4922199;29;20209;-89
2023/02/19 05:02:59;;;;;;;145.10;136.23;;;3.10;95.00;;;;;;4939132;29;20187;-88
2023/02/19 05:05:25;;;;;;;146.10;137.47;;;3.00;94.90;;;;;;4921850;29;20215;-88
2023/02/19 05:07:51;;;;;;;140.17;131.73;;;3.00;94.90;;;;;;4922163;29;20182;-88
2023/02/19 05:10:16;;;;;;;144.77;136.43;;;3.00;94.90;;;;;;4921956;29;20262;-89
2023/02/19 05:12:42;;;;;;;143.30;134.90;;;3.00;94.90;;;;;;4922056;29;20271;-88
2023/02/19 05:15:07;;;;;;;149.40;140.67;;;3.00;94.90;;;;;;4921813;29;20685;-88
2023/02/19 05:17:33;;;;;;;150.83;140.93;;;2.90;94.90;;;;;;4921914;29;20186;-89
2023/02/19 05:19:59;;;;;;;149.57;140.67;;;2.90;94.90;;;;;;4921795;29;20194;-88
2023/02/19 05:22:25;;;;;;;141.33;133.00;;;2.90;94.90;;;;;;4922205;29;20186;-89
2023/02/19 05:24:50;;;;;;;141.13;132.63;;;2.80;94.90;;;;;;4921576;29;20683;-89
2023/02/19 05:27:16;;;;;;;140.97;132.33;;;2.90;94.90;;;;;;4921713;29;20239;-88
2023/02/19 05:29:41;;;;;;;145.60;137.43;;;2.80;94.90;;;;;;4921574;29;20180;-89
2023/02/19 05:32:07;;;;;;;150.20;140.30;;;2.80;94.90;;;;;;4921572;29;20187;-88
2023/02/19 05:34:32;;;;;;;152.80;144.00;;;2.60;94.80;;;;;;4922025;29;20563;-88
2023/02/19 05:36:58;;;;;;;151.93;142.57;;;2.50;94.80;;;;;;4921934;29;20683;-88
2023/02/19 05:39:23;;;;;;;151.10;141.90;;;2.50;94.80;;;;;;4921808;29;20186;-88
2023/02/19 05:41:49;;;;;;;154.50;145.27;;;2.40;94.80;;;;;;4921509;29;20190;-89
2023/02/19 05:44:14;;;;;;;157.47;147.67;;;2.40;94.90;;;;;;4921424;29;20198;-89
2023/02/19 05:46:40;;;;;;;150.00;141.30;;;2.50;94.90;;;;;;4921231;29;20262;-88
2023/02/19 05:49:05;;;;;;;152.27;143.10;;;2.50;95.00;;;;;;4921923;29;20321;-88
2023/02/19 05:51:31;;;;;;;153.07;143.97;;;2.50;94.90;;;;;;4921264;29;20275;-89
2023/02/19 05:53:57;;;;;;;155.60;146.30;;;2.60;95.00;;;;;;4920677;29;20334;-89
2023/02/19 05:56:40;;;;;;;154.73;145.70;;;2.50;95.00;;;;;;4921127;29;20206;-88
2023/02/19 05:59:17;;;;;;;149.93;140.57;;;2.50;95.00;;;;;;4921152;29;20192;-88
2023/02/19 06:01:43;;;;;;;153.93;144.60;;;2.50;95.00;;;;;;4921208;29;20185;-88
2023/02/19 06:04:13;;;;;;;148.73;139.40;;;2.50;95.10;;;;;;4921023;29;20674;-88
2023/02/19 06:06:39;;;;;;;145.13;136.23;;;2.50;95.10;;;;;;4920831;29;20211;-88
2023/02/19 06:09:06;;;;;;;143.03;133.97;;;2.50;95.10;;;;;;4938278;29;20232;-88
2023/02/19 06:11:31;;;;;;;138.07;129.73;;;2.50;95.10;;;;;;4921204;29;20176;-88
2023/02/19 06:13:57;;;;;;;133.33;125.20;;;2.40;95.10;;;;;;4920897;29;20190;-88
2023/02/19 06:16:22;;;;;;;139.60;131.23;;;2.30;95.10;;;;;;4920818;29;20208;-89
2023/02/19 06:18:48;;;;;;;137.33;128.77;;;2.30;95.10;;;;;;4920823;29;20189;-88
2023/02/19 06:21:15;;;;;;;138.70;129.53;;;2.30;95.20;;;;;;4920718;29;20244;-88
2023/02/19 06:23:41;;;;;;;141.37;132.50;;;2.30;95.20;;;;;;4920687;29;20188;-89
2023/02/19 06:26:12;;;;;;;142.80;133.80;;;2.30;95.20;;;;;;4920845;29;20226;-88
2023/02/19 06:28:39;;;;;;;138.60;129.73;;;2.30;95.20;;;;;;4920611;29;20184;-88
2023/02/19 06:31:06;;;;;;;136.07;127.57;;;2.30;95.30;;;;;;4920599;29;20640;-89
2023/02/19 06:33:32;;;;;;;138.53;129.93;;;2.30;95.30;;;;;;4920347;29;20632;-89
2023/02/19 06:35:59;;;;;;;140.13;131.63;;;2.30;95.30;;;;;;4920370;29;20311;-89
2023/02/19 06:38:25;;;;;;;138.63;129.20;;;2.30;95.30;;;;;;4920615;29;20715;-88
2023/02/19 06:40:51;;;;;;;143.07;134.00;;;2.30;95.30;;;;;;4937394;29;20180;-88
2023/02/19 06:43:16;;;;;;;135.23;126.90;;;2.30;95.40;;;;;;4920357;29;20235;-88
2023/02/19 06:45:42;;;;;;;137.77;129.27;;;2.30;95.40;;;;;;4920127;29;20216;-88
2023/02/19 06:48:08;;;;;;;136.83;128.57;;;2.30;95.40;;;;;;4920276;29;20648;-88
2023/02/19 06:50:33;;;;;;;134.07;126.07;;;2.30;95.40;;;;;;4921292;29;20176;-88
2023/02/19 06:52:59;;;;;;;131.07;122.43;;;2.20;95.40;;;;;;4920207;29;20200;-89
2023/02/19 06:55:24;;;;;;;127.73;119.93;;;2.20;95.40;;;;;;4937133;29;20204;-88
2023/02/19 06:57:50;;;;;;;132.70;124.30;;;2.20;95.40;;;;;;4920817;29;20180;-88
2023/02/19 07:00:15;;;;;;;126.43;118.63;;;2.20;95.40;;;;;;4919915;29;20522;-88
2023/02/19 07:02:41;;;;;;;127.80;119.90;;;2.20;95.40;;;;;;4936991;29;20184;-88
2023/02/19 07:05:07;;;;;;;130.63;121.53;;;2.10;95.40;;;;;;4919242;29;20211;-88
2023/02/19 07:07:32;;;;;;;124.20;116.13;;;2.10;95.40;;;;;;4919704;29;20182;-88
2023/02/19 07:09:58;;;;;;;129.53;121.43;;;2.10;95.40;;;;;;4920693;29;20172;-88
2023/02/19 07:12:23;;;;;;;135.33;126.80;;;2.10;95.40;;;;;;4919994;29;20195;-89
2023/02/19 07:14:49;;;;;;;134.43;125.70;;;2.10;95.40;;;;;;4919676;29;20246;-88
2023/02/19 07:17:14;;;;;;;123.97;115.57;;;2.10;95.40;;;;;;4919708;29;20180;-88
2023/02/19 07:19:40;;;;;;;135.83;126.80;;;2.20;95.50;;;;;;4920168;29;20199;-88
2023/02/19 07:22:05;;;;;;;130.23;121.97;;;2.30;95.50;;;;;;4920056;29;20176;-88
2023/02/19 07:24:31;;;;;;;129.37;121.60;;;2.30;95.60;;;;;;4919726;29;20226;-88
2023/02/19 07:26:56;;;;;;;130.80;123.00;;;2.40;95.60;;;;;;4919717;29;20254;-88
2023/02/19 07:29:22;;;;;;;121.63;113.67;;;2.40;95.60;;;;;;4919734;29;20250;-88
2023/02/19 07:31:47;;;;;;;125.03;117.10;;;2.40;95.50;;;;;;4920568;29;20182;-88
2023/02/19 07:34:13;;;;;;;123.57;115.97;;;2.40;95.50;;;;;;4919306;29;20275;-89
2023/02/19 07:36:38;;;;;;;120.23;113.43;;;2.40;95.50;;;;;;4919262;29;20210;-89
2023/02/19 07:39:04;;;;;;;120.50;113.40;;;2.40;95.50;;;;;;4936668;29;20248;-89
2023/02/19 07:41:30;;;;;;;119.87;112.07;;;2.30;95.50;;;;;;4936297;29;20180;-89
2023/02/19 07:43:55;;;;;;;121.87;114.60;;;2.30;95.50;;;;;;4919714;29;20188;-89
2023/02/19 07:46:21;;;;;;;124.90;117.60;;;2.30;95.50;;;;;;4919150;29;20274;-89
2023/02/19 07:48:47;;;;;;;122.40;115.10;;;2.30;95.50;;;;;;4919190;29;20282;-89
2023/02/19 07:51:17;;;;;;;120.67;113.37;;;2.30;95.50;;;;;;4920075;29;20218;-89
2023/02/19 07:53:46;;;;;;;131.23;122.93;;;2.30;95.50;;;;;;4919464;29;20199;-88
2023/02/19 07:56:12;;;;;;;130.63;122.63;;;2.30;95.50;;;;;;4919140;29;20627;-88
2023/02/19 07:58:38;;;;;;;136.20;127.80;;;2.30;95.50;;;;;;4936264;29;20658;-87
2023/02/19 08:02:58;;;;;;;130.67;122.73;;;2.40;95.60;;;;;;4919657;29;20187;-87
2023/02/19 08:04:04;;;;;;;126.53;118.77;;;2.50;95.60;;;;;;4935983;29;20183;-89
2023/02/19 08:06:30;;;;;;;127.03;118.73;;;2.60;95.60;;;;;;4919353;29;20282;-90
2023/02/19 08:08:56;;;;;;;119.33;111.80;;;2.70;95.60;;;;;;4919136;29;20180;-88
2023/02/19 08:14:06;;;;;;;122.33;114.80;;;2.90;95.60;;;;;;4936559;29;20639;-89
2023/02/19 08:16:31;;;;;;;121.37;113.70;;;2.90;95.50;;;;;;4918685;29;20200;-88
2023/02/19 08:18:57;;;;;;;120.20;112.83;;;3.10;95.60;;;;;;4919016;29;20188;-88
2023/02/19 08:21:23;;;;;;;115.87;108.17;;;3.20;95.50;;;;;;4919025;29;20180;-89
2023/02/19 08:23:48;;;;;;;108.17;101.47;;;3.20;95.50;;;;;;4919058;29;20221;-89
2023/02/19 08:26:14;;;;;;;109.70;102.47;;;3.30;95.40;;;;;;4919482;29;20211;-89
2023/02/19 08:28:40;;;;;;;116.40;107.83;;;3.20;95.30;;;;;;4919243;29;20190;-88
2023/02/19 08:31:07;;;;;;;109.47;102.77;;;3.30;95.30;;;;;;4919199;29;20272;-89
2023/02/19 08:33:34;;;;;;;116.00;109.27;;;3.30;95.20;;;;;;4918894;29;20180;-88
2023/02/19 08:36:04;;;;;;;117.63;110.43;;;3.50;95.30;;;;;;4918852;29;20231;-89
2023/02/19 08:38:32;;;;;;;111.63;104.90;;;3.60;95.10;;;;;;4919479;29;20195;-90
2023/02/19 08:40:58;;;;;;;121.00;112.00;;;3.60;95.10;;;;;;4919275;29;20527;-89
2023/02/19 08:43:23;;;;;;;113.37;106.07;;;3.60;95.10;;;;;;4918880;29;20191;-89
2023/02/19 08:45:53;;;;;;;112.47;105.70;;;3.70;95.10;;;;;;4919262;29;20204;-89
2023/02/19 08:48:18;;;;;;;104.53;98.03;;;3.80;95.00;;;;;;4919336;29;20191;-89
2023/02/19 08:50:44;;;;;;;103.43;97.10;;;3.90;94.90;;;;;;4919393;29;20263;-89
2023/02/19 08:53:09;;;;;;;99.87;93.63;;;4.00;94.70;;;;;;4918881;29;20181;-89
2023/02/19 08:55:37;;;;;;;100.77;94.70;;;4.10;94.60;;;;;;4936158;29;20285;-89
2023/02/19 08:58:02;;;;;;;107.93;101.23;;;4.20;94.60;;;;;;4919194;29;20190;-89
2023/02/19 09:00:28;;;;;;;104.83;98.33;;;4.30;94.60;;;;;;4918929;29;20267;-89
2023/02/19 09:02:56;;;;;;;106.17;99.63;;;4.30;94.50;;;;;;4936068;29;20172;-89
2023/02/19 09:05:21;;;;;;;104.57;98.43;;;4.30;94.50;;;;;;4919194;29;20212;-89
2023/02/19 09:07:47;;;;;;;95.73;89.63;;;4.40;94.40;;;;;;4919319;29;20180;-89
2023/02/19 09:10:13;;;;;;;98.27;92.40;;;4.50;94.30;;;;;;4918953;29;20184;-89
2023/02/19 09:12:39;;;;;;;106.10;99.23;;;4.60;94.20;;;;;;4919375;29;20207;-89
2023/02/19 09:15:05;;;;;;;103.40;97.00;;;4.60;94.20;;;;;;4918941;29;20586;-89
2023/02/19 09:17:31;;;;;;;105.43;98.87;;;4.70;94.30;;;;;;4919390;29;20191;-90
2023/02/19 09:19:56;;;;;;;108.97;101.53;;;4.80;94.20;;;;;;4918733;29;20212;-89
2023/02/19 09:22:22;;;;;;;101.27;95.00;;;4.80;94.10;;;;;;4918830;29;20212;-89
2023/02/19 09:24:47;;;;;;;113.17;106.13;;;4.90;94.10;;;;;;4918834;29;20243;-89
2023/02/19 09:27:18;;;;;;;106.90;99.47;;;5.00;94.20;;;;;;4918598;29;20176;-90
2023/02/19 09:29:44;;;;;;;110.53;103.87;;;5.10;94.20;;;;;;4921420;29;20216;-89
2023/02/19 09:32:10;;;;;;;106.80;99.77;;;5.10;94.00;;;;;;4939018;29;20172;-89
2023/02/19 09:34:37;;;;;;;109.03;102.37;;;5.20;94.00;;;;;;4921890;29;20203;-89
2023/02/19 09:37:03;;;;;;;97.30;90.83;;;5.30;93.90;;;;;;4921960;29;20184;-89
2023/02/19 09:39:29;;;;;;;101.63;95.53;;;5.30;93.70;;;;;;4922772;29;20215;-89
2023/02/19 09:41:59;;;;;;;93.00;86.47;;;5.50;93.90;;;;;;4921999;29;20219;-88
2023/02/19 09:44:32;;;;;;;92.20;86.33;;;5.50;93.60;;;;;;4922518;29;20180;-88
2023/02/19 09:47:00;;;;;;;82.00;76.93;;;5.70;93.20;;;;;;4921863;29;20299;-89
2023/02/19 09:49:39;;;;;;;84.30;78.17;;;5.80;93.10;;;;;;4921978;29;20187;-89
2023/02/19 09:52:17;;;;;;;65.67;61.10;;;5.80;93.00;;;;;;4939308;29;20171;-89
2023/02/19 09:54:43;;;;;;;67.60;62.90;;;5.80;92.20;;;;;;4921544;29;20224;-89
2023/02/19 09:57:14;;;;;;;70.43;65.53;;;5.90;92.10;;;;;;4922697;29;20188;-90
2023/02/19 09:59:59;;;;;;;61.07;56.47;;;6.00;92.20;;;;;;4922610;29;20188;-89
2023/02/19 10:02:26;;;;;;;51.93;48.23;;;6.10;91.90;;;;;;4921475;29;20180;-89
2023/02/19 10:04:52;;;;;;;40.90;37.73;;;6.20;91.70;;;;;;4921961;29;20585;-89
2023/02/19 10:07:24;;;;;;;33.53;31.07;;;6.20;90.20;;;;;;4921419;29;20176;-89
2023/02/19 10:09:57;;;;;;;34.50;31.67;;;6.20;89.00;;;;;;4921254;29;20197;-89
2023/02/19 10:12:30;;;;;;;30.00;27.40;;;6.20;88.10;;;;;;4921387;29;20176;-89
2023/02/19 10:15:08;;;;;;;33.20;30.80;;;6.40;88.40;;;;;;4922114;29;20200;-89
2023/02/19 10:17:34;;;;;;;31.37;29.17;;;6.50;88.60;;;;;;4938551;29;20177;-89
2023/02/19 10:20:02;;;;;;;27.00;24.93;;;6.60;88.10;;;;;;4921158;29;20184;-89
2023/02/19 10:22:30;;;;;;;33.30;30.43;;;6.60;86.40;;;;;;4921267;29;20180;-91
2023/02/19 10:24:55;;;;;;;30.63;28.43;;;6.70;86.40;;;;;;4920575;29;20747;-88
2023/02/19 10:27:21;;;;;;;26.27;24.23;;;6.90;86.70;;;;;;4921111;29;20275;-89
2023/02/19 10:29:51;;;;;;;28.90;26.77;;;6.90;86.60;;;;;;4921461;29;20184;-89
2023/02/19 10:32:22;;;;;;;31.00;27.90;;;7.00;86.80;;;;;;4921798;29;20242;-89
2023/02/19 10:35:12;;;;;;;29.97;27.53;;;7.10;86.70;;;;;;4920968;29;20219;-89
2023/02/19 10:37:47;;;;;;;29.63;27.17;;;7.20;86.60;;;;;;4920693;29;20184;-89
2023/02/19 10:40:22;;;;;;;30.60;28.00;;;7.30;86.80;;;;;;4920706;29;20184;-89
2023/02/19 10:42:53;;;;;;;42.47;39.27;;;7.30;85.90;;;;;;4920795;29;20187;-89
2023/02/19 10:45:37;;;;;;;47.30;44.20;;;7.30;84.80;;;;;;4920576;29;20212;-89
2023/02/19 10:48:03;;;;;;;39.13;36.30;;;7.40;85.50;;;;;;4920979;29;20236;-89
2023/02/19 10:50:38;;;;;;;39.53;36.23;;;7.40;84.20;;;;;;4920493;29;20180;-88
2023/02/19 10:53:04;;;;;;;41.17;37.50;;;7.40;83.50;;;;;;4920589;29;20179;-89
2023/02/19 10:55:32;;;;;;;41.07;38.03;;;7.50;83.80;;;;;;4920466;29;20256;-89
2023/02/19 10:58:25;;;;;;;42.90;39.33;;;7.60;83.40;;;;;;4920290;29;20186;-89
2023/02/19 11:01:22;;;;;;;37.33;34.20;;;7.80;84.30;;;;;;4920639;29;20184;-89
2023/02/19 11:04:12;;;;;;;34.50;31.43;;;7.60;82.80;;;;;;4921975;29;20203;-88
2023/02/19 11:06:37;;;;;;;36.10;33.40;;;7.80;83.30;;;;;;4920182;29;20298;-88
2023/02/19 11:09:03;;;;;;;37.87;34.70;;;7.80;82.40;;;;;;4921043;29;20230;-88
2023/02/19 11:11:38;;;;;;;41.30;37.63;;;7.80;81.70;;;;;;4920662;29;20235;-88
2023/02/19 11:14:16;;;;;;;39.00;35.80;;;7.80;81.80;;;;;;4920621;29;20274;-89
2023/02/19 11:16:48;;;;;;;38.87;35.70;;;7.90;82.00;;;;;;4920369;29;20222;-88
2023/02/19 11:19:28;;;;;;;38.97;36.40;;;8.30;83.20;;;;;;4919961;29;20535;-89
2023/02/19 11:21:54;;;;;;;40.47;37.47;;;8.30;80.10;;;;;;4920157;29;20268;-90
2023/02/19 11:24:29;;;;;;;37.90;34.73;;;8.30;80.40;;;;;;4920500;29;20191;-88
2023/02/19 11:26:56;;;;;;;39.57;36.20;;;8.20;80.20;;;;;;4919819;29;20695;-89
2023/02/19 11:29:27;;;;;;;35.43;32.67;;;8.30;80.10;;;;;;4919882;29;20184;-89
2023/02/19 11:31:53;;;;;;;38.03;35.13;;;8.40;79.50;;;;;;4919532;29;20566;-89
2023/02/19 11:34:24;;;;;;;35.83;33.20;;;8.30;78.30;;;;;;4919974;29;20228;-89
2023/02/19 11:37:08;;;;;;;44.37;41.23;;;8.10;78.60;;;;;;4919500;29;20172;-89
2023/02/19 11:39:34;;;;;;;36.23;33.50;;;7.60;79.40;;;;;;4920280;29;20180;-89
2023/02/19 11:42:16;;;;;;;42.30;39.10;;;7.60;80.50;;;;;;4920198;29;20180;-92
2023/02/19 11:45:16;;;;;;;38.33;35.43;;;7.70;81.30;;;;;;4919734;29;20637;-91
2023/02/19 11:47:55;;;;;;;37.10;33.80;;;8.00;82.00;;;;;;4906512;29;20200;-91
2023/02/19 11:50:43;;;;;;;33.63;30.77;;;8.10;80.30;;;;;;4920176;29;20180;-88
2023/02/19 11:53:33;;;;;;;30.33;27.73;;;8.20;79.50;;;;;;4935836;29;20188;-89
2023/02/19 11:56:18;;;;;;;31.40;27.60;;;8.40;79.60;;;;;;4919411;29;20307;-90
2023/02/19 11:59:00;;;;;;;27.87;25.37;;;8.50;79.10;;;;;;4919736;29;20188;-89
2023/02/19 12:01:41;;;;;;;28.30;25.97;;;8.20;76.30;;;;;;4920048;29;20184;-89
2023/02/19 12:04:34;;;;;;;28.60;26.07;;;8.30;77.40;;;;;;4919242;29;20176;-89
2023/02/19 12:07:28;;;;;;;27.53;25.67;;;8.40;76.60;;;;;;4936079;29;20203;-89
2023/02/19 12:10:15;;;;;;;25.60;23.30;;;8.60;77.70;;;;;;4919225;29;20179;-90
2023/02/19 12:13:15;;;;;;;27.20;24.60;;;8.80;77.80;;;;;;4919037;29;20172;-89
2023/02/19 12:16:08;;;;;;;28.20;25.40;;;8.70;77.40;;;;;;4918897;29;20676;-89
2023/02/19 12:18:39;;;;;;;28.17;25.43;;;9.10;77.30;;;;;;4918956;29;20211;-89
2023/02/19 12:21:38;;;;;;;27.50;24.67;;;9.00;75.20;;;;;;4918863;29;20187;-89
2023/02/19 12:24:37;;;;;;;26.13;23.83;;;8.50;75.40;;;;;;4918864;29;20182;-89
2023/02/19 12:27:39;;;;;;;27.37;24.57;;;8.80;78.00;;;;;;4935891;29;20188;-89
2023/02/19 12:30:35;;;;;;;25.93;23.70;;;8.90;74.70;;;;;;4919207;29;20179;-88
2023/02/19 12:33:22;;;;;;;25.23;22.87;;;8.90;75.80;;;;;;4919079;29;20215;-90
2023/02/19 12:35:54;;;;;;;28.00;25.47;;;9.20;75.80;;;;;;4918879;29;20228;-92
2023/02/19 12:38:34;;;;;;;26.10;23.83;;;9.10;74.60;;;;;;4919154;29;20180;-90
2023/02/19 12:41:14;;;;;;;25.67;23.47;;;8.90;74.70;;;;;;4919099;29;20183;-91
2023/02/19 12:43:50;;;;;;;25.70;23.23;;;9.10;74.80;;;;;;4918900;29;20169;-90
2023/02/19 12:46:26;;;;;;;26.97;24.10;;;9.20;73.80;;;;;;4918859;29;20275;-90
2023/02/19 12:48:55;;;;;;;26.90;24.53;;;9.20;73.10;;;;;;4919073;29;20179;-91
2023/02/19 12:51:44;;;;;;;28.30;26.03;;;9.10;72.80;;;;;;4919189;29;20272;-89
2023/02/19 12:54:19;;;;;;;26.87;24.60;;;9.30;73.00;;;;;;4919302;29;20169;-88
2023/02/19 12:56:59;;;;;;;25.70;22.87;;;9.00;70.40;;;;;;4919723;29;20204;-88
2023/02/19 12:59:45;;;;;;;24.87;22.47;;;8.60;72.40;;;;;;4937131;29;20172;-88
2023/02/19 13:02:20;;;;;;;28.17;26.07;;;8.80;73.10;;;;;;4919526;29;20279;-88